Time;durP1;ratioP1;P1;durP2;ratioP2;P2;SDS_P1;SDS_P2;PMS_P1;PMS_P2;Temp;Humidity;BMP_temperature;BMP_pressure;BME280_temperature;BME280_humidity;BME280_pressure;Samples;Min_cycle;Max_cycle;Signal;HPM_P1;HPM_P2
2022/04/03 00:01:39;;;;;;;;;;;;;;;10.78;35.43;102372.88;5053885;28;19913;-75
2022/04/03 00:04:04;;;;;;;;;;;;;;;10.74;35.66;102375.13;5052844;28;19921;-74
2022/04/03 00:06:30;;;;;;;;;;;;;;;10.00;36.93;102375.31;5053343;28;19917;-73
2022/04/03 00:08:56;;;;;;;;;;;;;;;10.51;35.92;102379.81;5053339;28;19925;-74
2022/04/03 00:11:21;;;;;;;;;;;;;;;10.96;35.62;102373.31;5050655;28;19962;-74
2022/04/03 00:13:48;;;;;;;;;;;;;;;10.85;35.43;102366.56;5053452;28;19913;-73
2022/04/03 00:16:14;;;;;;;;;;;;;;;10.55;35.89;102373.03;5053964;28;19952;-74
2022/04/03 00:18:39;;;;;;;;;;;;;;;10.67;36.06;102373.38;5053057;28;19957;-74
2022/04/03 00:21:04;;;;;;;;;;;;;;;10.94;35.70;102380.72;5053069;28;20000;-73
2022/04/03 00:23:30;;;;;;;;;;;;;;;10.70;35.82;102386.44;5052895;28;19920;-72
2022/04/03 00:25:55;;;;;;;;;;;;;;;10.78;35.69;102376.41;5052788;28;19991;-75
2022/04/03 00:28:20;;;;;;;;;;;;;;;10.46;36.29;102382.19;5053031;28;20369;-75
2022/04/03 00:30:46;;;;;;;;;;;;;;;10.66;36.26;102380.59;5052988;28;19919;-75
2022/04/03 00:33:12;;;;;;;;;;;;;;;10.45;37.16;102377.88;5052542;28;19963;-73
2022/04/03 00:35:37;;;;;;;;;;;;;;;10.52;36.68;102378.78;5052537;28;19963;-75
2022/04/03 00:38:03;;;;;;;;;;;;;;;10.61;36.13;102380.34;5049303;28;19952;-74
2022/04/03 00:40:28;;;;;;;;;;;;;;;10.50;36.29;102378.97;5051495;28;19996;-74
2022/04/03 00:42:53;;;;;;;;;;;;;;;10.66;36.20;102377.91;5052478;28;20347;-74
2022/04/03 00:45:19;;;;;;;;;;;;;;;10.51;35.63;102380.63;5052263;28;19917;-75
2022/04/03 00:47:45;;;;;;;;;;;;;;;10.46;36.35;102377.66;5052658;28;19917;-75
2022/04/03 00:50:10;;;;;;;;;;;;;;;10.70;36.03;102373.00;5052443;28;20281;-74
2022/04/03 00:52:35;;;;;;;;;;;;;;;10.28;36.37;102371.84;5052487;28;19923;-74
2022/04/03 00:55:02;;;;;;;;;;;;;;;10.45;36.51;102376.00;5052482;28;19955;-73
2022/04/03 00:57:27;;;;;;;;;;;;;;;10.47;36.86;102370.44;5052508;28;19917;-75
2022/04/03 00:59:53;;;;;;;;;;;;;;;10.39;37.05;102373.22;5052497;28;19920;-73
2022/04/03 01:02:19;;;;;;;;;;;;;;;10.26;36.98;102370.38;5052506;28;19964;-75
2022/04/03 01:04:44;;;;;;;;;;;;;;;10.26;37.36;102371.19;5052134;28;19955;-73
2022/04/03 01:07:09;;;;;;;;;;;;;;;10.41;36.42;102372.03;5052790;28;20329;-74
2022/04/03 01:09:34;;;;;;;;;;;;;;;10.39;36.50;102368.69;5052649;28;19917;-75
2022/04/03 01:11:59;;;;;;;;;;;;;;;10.25;36.71;102368.69;5052897;28;19935;-74
2022/04/03 01:14:31;;;;;;;;;;;;;;;10.27;37.07;102361.28;5052044;28;19995;-75
2022/04/03 01:16:56;;;;;;;;;;;;;;;10.48;35.35;102364.88;5052070;28;19913;-74
2022/04/03 01:19:21;;;;;;;;;;;;;;;10.24;36.85;102361.66;5050618;28;19920;-74
2022/04/03 01:21:47;;;;;;;;;;;;;;;10.22;37.36;102361.84;5050078;28;20335;-73
2022/04/03 01:24:19;;;;;;;;;;;;;;;10.39;36.43;102357.94;5051746;28;20425;-74
2022/04/03 01:26:44;;;;;;;;;;;;;;;10.18;36.40;102357.03;5051491;28;19920;-74
2022/04/03 01:29:09;;;;;;;;;;;;;;;10.21;37.39;102354.81;5051748;28;19916;-74
2022/04/03 01:31:34;;;;;;;;;;;;;;;10.57;36.16;102352.19;5052436;28;20334;-74
2022/04/03 01:34:00;;;;;;;;;;;;;;;10.11;36.73;102348.88;5051782;28;19927;-74
2022/04/03 01:36:25;;;;;;;;;;;;;;;10.50;36.22;102349.41;5052164;28;19921;-73
2022/04/03 01:38:50;;;;;;;;;;;;;;;10.78;36.04;102344.16;5052058;28;19913;-76
2022/04/03 01:41:16;;;;;;;;;;;;;;;10.48;36.28;102343.38;5051702;28;19999;-73
2022/04/03 01:43:41;;;;;;;;;;;;;;;10.49;36.54;102349.59;5050835;28;20006;-74
2022/04/03 01:46:06;;;;;;;;;;;;;;;10.61;36.30;102345.41;5051412;28;19920;-75
2022/04/03 01:48:32;;;;;;;;;;;;;;;10.85;35.84;102342.34;5051805;28;19962;-74
2022/04/03 01:50:57;;;;;;;;;;;;;;;10.59;36.37;102348.25;5051463;28;19923;-73
2022/04/03 01:53:24;;;;;;;;;;;;;;;10.75;35.92;102341.00;5051849;28;19928;-74
2022/04/03 01:55:59;;;;;;;;;;;;;;;10.93;35.87;102344.94;5049093;28;19916;-73
2022/04/03 01:58:24;;;;;;;;;;;;;;;10.84;36.47;102350.63;5051209;28;19920;-73
2022/04/03 02:00:50;;;;;;;;;;;;;;;11.15;35.60;102338.53;5051349;28;19916;-75
2022/04/03 02:03:15;;;;;;;;;;;;;;;10.51;36.54;102344.88;5051223;28;19912;-75
2022/04/03 02:05:40;;;;;;;;;;;;;;;10.98;35.72;102337.13;5050447;28;19920;-75
2022/04/03 02:08:06;;;;;;;;;;;;;;;11.04;35.77;102339.06;5048773;28;19928;-75
2022/04/03 02:10:31;;;;;;;;;;;;;;;10.57;37.40;102336.06;5051469;28;19927;-73
2022/04/03 02:12:56;;;;;;;;;;;;;;;10.61;36.86;102340.03;5050621;28;20380;-73
2022/04/03 02:15:23;;;;;;;;;;;;;;;11.14;35.93;102334.19;5050574;28;20359;-73
2022/04/03 02:17:48;;;;;;;;;;;;;;;11.35;35.62;102344.09;5050795;28;19993;-75
2022/04/03 02:20:13;;;;;;;;;;;;;;;11.47;35.02;102339.88;5050775;28;19917;-74
2022/04/03 02:22:38;;;;;;;;;;;;;;;11.10;35.98;102334.75;5050468;28;20387;-73
2022/04/03 02:25:04;;;;;;;;;;;;;;;10.85;36.66;102331.59;5049714;28;20288;-75
2022/04/03 02:27:30;;;;;;;;;;;;;;;11.30;35.46;102339.28;5051602;28;20375;-73
2022/04/03 02:29:55;;;;;;;;;;;;;;;11.37;35.85;102339.38;5050375;28;19917;-73
2022/04/03 02:32:20;;;;;;;;;;;;;;;11.82;34.80;102341.63;5051431;28;19928;-74
2022/04/03 02:34:46;;;;;;;;;;;;;;;11.47;35.10;102334.47;5051274;28;20375;-74
2022/04/03 02:37:14;;;;;;;;;;;;;;;11.54;35.16;102338.03;5051949;28;20269;-74
2022/04/03 02:39:40;;;;;;;;;;;;;;;11.81;34.35;102334.56;5051334;28;19917;-74
2022/04/03 02:42:05;;;;;;;;;;;;;;;11.54;35.31;102335.34;5051009;28;20299;-74
2022/04/03 02:44:31;;;;;;;;;;;;;;;11.05;36.27;102332.66;5051342;28;19920;-75
2022/04/03 02:46:57;;;;;;;;;;;;;;;11.88;34.75;102337.31;5050939;28;19920;-74
2022/04/03 02:49:23;;;;;;;;;;;;;;;11.18;36.11;102330.06;5051369;28;19999;-73
2022/04/03 02:51:50;;;;;;;;;;;;;;;12.07;34.67;102325.81;5050988;28;20372;-75
2022/04/03 02:54:15;;;;;;;;;;;;;;;11.96;34.61;102329.91;5051293;28;19960;-75
2022/04/03 02:56:40;;;;;;;;;;;;;;;11.26;36.17;102332.63;5050728;28;19959;-74
2022/04/03 02:59:06;;;;;;;;;;;;;;;11.83;35.09;102323.59;5051152;28;19916;-74
2022/04/03 03:01:31;;;;;;;;;;;;;;;12.17;34.56;102324.44;5054670;28;19935;-73
2022/04/03 03:03:56;;;;;;;;;;;;;;;12.14;34.57;102326.69;5054375;28;19976;-73
2022/04/03 03:06:21;;;;;;;;;;;;;;;12.00;34.55;102322.25;5053774;28;19924;-75
2022/04/03 03:08:47;;;;;;;;;;;;;;;11.83;34.96;102319.03;5052977;28;19913;-77
2022/04/03 03:11:12;;;;;;;;;;;;;;;12.22;35.02;102323.84;5053931;28;19916;-74
2022/04/03 03:13:37;;;;;;;;;;;;;;;12.13;34.93;102320.47;5054358;28;20181;-74
2022/04/03 03:16:03;;;;;;;;;;;;;;;12.35;35.10;102315.81;5053855;28;19940;-75
2022/04/03 03:18:28;;;;;;;;;;;;;;;12.12;35.14;102315.28;5054100;28;19943;-74
2022/04/03 03:20:54;;;;;;;;;;;;;;;12.05;35.41;102314.41;5054118;28;19916;-74
2022/04/03 03:23:19;;;;;;;;;;;;;;;12.14;35.28;102313.22;5052516;28;20014;-72
2022/04/03 03:25:45;;;;;;;;;;;;;;;12.00;35.48;102311.47;5054451;28;19913;-74
2022/04/03 03:28:11;;;;;;;;;;;;;;;12.18;34.71;102309.09;5054083;28;19919;-75
2022/04/03 03:30:36;;;;;;;;;;;;;;;12.15;34.54;102309.47;5053848;28;19924;-74
2022/04/03 03:33:03;;;;;;;;;;;;;;;12.31;34.71;102304.59;5053738;28;19927;-73
2022/04/03 03:35:28;;;;;;;;;;;;;;;12.34;34.71;102311.47;5053889;28;19927;-75
2022/04/03 03:37:53;;;;;;;;;;;;;;;12.35;34.69;102307.72;5052478;28;19912;-74
2022/04/03 03:40:19;;;;;;;;;;;;;;;11.82;35.46;102313.84;5054952;28;20395;-73
2022/04/03 03:42:44;;;;;;;;;;;;;;;11.77;35.68;102316.31;5053956;28;19916;-72
2022/04/03 03:45:11;;;;;;;;;;;;;;;11.33;37.10;102314.69;5054274;28;20016;-73
2022/04/03 03:47:36;;;;;;;;;;;;;;;9.86;40.01;102325.13;5054745;28;19939;-74
2022/04/03 03:50:02;;;;;;;;;;;;;;;10.21;39.94;102321.72;5054437;28;19912;-74
2022/04/03 03:52:28;;;;;;;;;;;;;;;11.18;37.78;102313.13;5055018;28;20348;-73
2022/04/03 03:54:53;;;;;;;;;;;;;;;11.24;37.81;102320.41;5054133;28;19989;-73
2022/04/03 03:57:19;;;;;;;;;;;;;;;11.91;36.04;102313.50;5054036;28;19920;-74
2022/04/03 03:59:44;;;;;;;;;;;;;;;11.47;36.96;102316.47;5053850;28;20066;-75
2022/04/03 04:02:09;;;;;;;;;;;;;;;11.90;36.57;102319.09;5053047;28;19917;-73
2022/04/03 04:04:35;;;;;;;;;;;;;;;11.88;36.16;102315.75;5053602;28;20366;-73
2022/04/03 04:07:00;;;;;;;;;;;;;;;12.49;35.03;102324.78;5053781;28;20341;-74
2022/04/03 04:09:25;;;;;;;;;;;;;;;12.60;34.40;102321.50;5053945;28;20482;-73
2022/04/03 04:11:51;;;;;;;;;;;;;;;10.77;38.58;102312.88;5052087;28;19928;-74
2022/04/03 04:14:16;;;;;;;;;;;;;;;11.37;37.92;102312.44;5051925;28;19917;-74
2022/04/03 04:16:42;;;;;;;;;;;;;;;11.90;37.04;102311.84;5053955;28;19913;-74
2022/04/03 04:19:07;;;;;;;;;;;;;;;12.17;36.06;102308.25;5053539;28;19917;-73
2022/04/03 04:21:33;;;;;;;;;;;;;;;12.32;36.17;102313.53;5038803;28;20032;-74
2022/04/03 04:23:58;;;;;;;;;;;;;;;12.19;36.26;102306.19;5032400;28;19917;-74
2022/04/03 04:26:23;;;;;;;;;;;;;;;11.81;37.74;102304.94;5033870;28;19917;-73
2022/04/03 04:28:50;;;;;;;;;;;;;;;11.90;37.15;102303.75;5033069;28;19921;-73
2022/04/03 04:31:15;;;;;;;;;;;;;;;11.17;38.21;102297.97;5034033;28;19957;-74
2022/04/03 04:33:41;;;;;;;;;;;;;;;12.10;37.01;102299.31;5033286;28;19952;-73
2022/04/03 04:36:07;;;;;;;;;;;;;;;11.65;37.57;102294.44;5033343;28;19921;-75
2022/04/03 04:38:32;;;;;;;;;;;;;;;12.23;36.00;102296.69;5033222;28;20357;-74
2022/04/03 04:40:57;;;;;;;;;;;;;;;12.10;36.88;102302.00;5033063;28;20277;-73
2022/04/03 04:43:23;;;;;;;;;;;;;;;12.23;36.52;102301.22;5033347;28;19913;-74
2022/04/03 04:45:48;;;;;;;;;;;;;;;12.02;36.37;102295.94;5042314;28;19957;-75
2022/04/03 04:48:13;;;;;;;;;;;;;;;12.09;36.11;102304.88;5052907;28;20167;-73
2022/04/03 04:50:38;;;;;;;;;;;;;;;12.09;36.54;102307.56;5084952;28;19916;-73
2022/04/03 04:53:03;;;;;;;;;;;;;;;12.11;36.52;102300.13;5052695;28;19920;-73
2022/04/03 04:55:29;;;;;;;;;;;;;;;11.98;36.68;102298.22;5053239;28;19961;-73
2022/04/03 04:57:55;;;;;;;;;;;;;;;11.88;36.89;102302.28;5053211;28;19999;-74
2022/04/03 05:00:21;;;;;;;;;;;;;;;11.88;37.02;102305.81;5052394;28;19924;-74
2022/04/03 05:02:47;;;;;;;;;;;;;;;11.80;37.26;102305.13;5052398;28;19923;-73
2022/04/03 05:05:17;;;;;;;;;;;;;;;11.69;37.86;102303.00;5052125;28;19921;-75
2022/04/03 05:07:43;;;;;;;;;;;;;;;11.54;38.22;102308.44;5052540;28;19923;-72
2022/04/03 05:10:09;;;;;;;;;;;;;;;11.88;37.03;102305.81;5052667;28;19909;-73
2022/04/03 05:12:35;;;;;;;;;;;;;;;11.79;37.45;102309.72;5051877;28;19927;-74
2022/04/03 05:15:01;;;;;;;;;;;;;;;11.82;37.20;102313.84;5052424;28;20319;-75
2022/04/03 05:17:26;;;;;;;;;;;;;;;11.09;38.22;102319.63;5052874;28;19917;-74
2022/04/03 05:19:52;;;;;;;;;;;;;;;11.57;37.37;102318.00;5052541;28;19913;-74
2022/04/03 05:22:17;;;;;;;;;;;;;;;11.73;36.92;102312.34;5052534;28;20007;-75
2022/04/03 05:24:43;;;;;;;;;;;;;;;11.66;36.76;102314.13;5052634;28;19938;-76
2022/04/03 05:27:08;;;;;;;;;;;;;;;10.96;38.36;102312.28;5052340;28;19920;-74
2022/04/03 05:29:34;;;;;;;;;;;;;;;11.33;37.80;102306.63;5052865;28;19917;-75
2022/04/03 05:32:00;;;;;;;;;;;;;;;11.48;37.69;102314.59;5052560;28;20406;-74
2022/04/03 05:34:25;;;;;;;;;;;;;;;11.21;38.18;102315.41;5053258;28;19905;-74
2022/04/03 05:36:50;;;;;;;;;;;;;;;11.30;37.97;102312.38;5052442;28;19917;-75
2022/04/03 05:39:16;;;;;;;;;;;;;;;10.91;38.58;102313.88;5050735;28;20003;-74
2022/04/03 05:41:41;;;;;;;;;;;;;;;11.87;36.52;102306.81;5051920;28;19924;-73
2022/04/03 05:44:07;;;;;;;;;;;;;;;11.73;36.96;102315.03;5051619;28;19978;-75
2022/04/03 05:46:32;;;;;;;;;;;;;;;11.59;36.44;102307.84;5052255;28;19931;-75
2022/04/03 05:48:59;;;;;;;;;;;;;;;11.42;37.46;102310.00;5051916;28;19917;-75
2022/04/03 05:51:24;;;;;;;;;;;;;;;11.58;36.60;102312.41;5051908;28;20351;-74
2022/04/03 05:53:50;;;;;;;;;;;;;;;11.56;37.26;102308.25;5052194;28;19942;-75
2022/04/03 05:56:15;;;;;;;;;;;;;;;11.36;37.61;102308.09;5050099;28;20372;-73
2022/04/03 05:58:40;;;;;;;;;;;;;;;11.97;36.67;102310.00;5052001;28;19960;-74
2022/04/03 06:01:05;;;;;;;;;;;;;;;11.81;36.44;102313.00;5051477;28;19912;-74
2022/04/03 06:03:31;;;;;;;;;;;;;;;11.37;37.45;102317.84;5050337;28;19920;-75
2022/04/03 06:05:56;;;;;;;;;;;;;;;11.76;36.78;102310.09;5051459;28;19970;-74
2022/04/03 06:08:21;;;;;;;;;;;;;;;11.43;37.74;102317.06;5051743;28;19917;-74
2022/04/03 06:10:47;;;;;;;;;;;;;;;11.62;37.07;102315.53;5051589;28;19920;-75
2022/04/03 06:13:15;;;;;;;;;;;;;;;11.92;36.67;102314.31;5051904;28;20411;-74
2022/04/03 06:15:42;;;;;;;;;;;;;;;12.18;35.96;102314.47;5051565;28;19916;-74
2022/04/03 06:18:08;;;;;;;;;;;;;;;12.12;36.19;102316.13;5051936;28;19923;-76
2022/04/03 06:20:34;;;;;;;;;;;;;;;12.08;36.66;102325.63;5051991;28;19923;-74
2022/04/03 06:22:59;;;;;;;;;;;;;;;11.65;37.61;102318.69;5051949;28;19913;-75
2022/04/03 06:25:25;;;;;;;;;;;;;;;12.36;36.01;102314.78;5052348;28;19912;-75
2022/04/03 06:27:53;;;;;;;;;;;;;;;12.05;37.53;102320.63;5051968;28;19917;-73
2022/04/03 06:30:19;;;;;;;;;;;;;;;11.98;37.70;102325.16;5051418;28;20565;-75
2022/04/03 06:32:44;;;;;;;;;;;;;;;12.20;37.60;102321.34;5051644;28;19921;-74
2022/04/03 06:35:09;;;;;;;;;;;;;;;12.30;37.37;102318.28;5052642;28;19919;-74
2022/04/03 06:37:35;;;;;;;;;;;;;;;12.30;37.83;102327.19;5055685;28;19919;-72
2022/04/03 06:40:00;;;;;;;;;;;;;;;12.49;37.71;102322.06;5055472;28;19913;-73
2022/04/03 06:42:27;;;;;;;;;;;;;;;11.95;39.21;102322.03;5055328;28;19924;-73
2022/04/03 06:44:53;;;;;;;;;;;;;;;12.70;37.69;102328.16;5054802;28;19920;-75
2022/04/03 06:47:18;;;;;;;;;;;;;;;12.57;38.17;102327.28;5055062;28;19925;-74
2022/04/03 06:49:43;;;;;;;;;;;;;;;12.15;38.90;102331.88;5055521;28;19909;-73
2022/04/03 06:52:11;;;;;;;;;;;;;;;11.31;41.30;102329.38;5055005;28;19924;-74
2022/04/03 06:54:36;;;;;;;;;;;;;;;12.32;39.39;102327.81;5054854;28;19939;-74
2022/04/03 06:57:02;;;;;;;;;;;;;;;12.51;38.74;102325.41;5054768;28;19921;-75
2022/04/03 06:59:29;;;;;;;;;;;;;;;13.05;37.94;102323.53;5052870;28;20015;-75
2022/04/03 07:01:54;;;;;;;;;;;;;;;11.84;40.43;102325.25;5054797;28;19920;-74
2022/04/03 07:04:19;;;;;;;;;;;;;;;12.11;40.34;102332.47;5054711;28;19982;-75
2022/04/03 07:06:44;;;;;;;;;;;;;;;12.52;39.71;102333.28;5054817;28;20426;-74
2022/04/03 07:09:11;;;;;;;;;;;;;;;11.84;40.99;102334.19;5054733;28;19912;-74
2022/04/03 07:11:36;;;;;;;;;;;;;;;11.36;42.64;102329.63;5054647;28;19917;-74
2022/04/03 07:14:01;;;;;;;;;;;;;;;12.01;41.63;102332.03;5054191;28;19919;-75
2022/04/03 07:16:27;;;;;;;;;;;;;;;13.06;39.10;102330.56;5054541;28;19919;-75
2022/04/03 07:18:52;;;;;;;;;;;;;;;12.90;39.67;102328.22;5053784;28;19912;-75
2022/04/03 07:21:18;;;;;;;;;;;;;;;12.59;40.35;102338.72;5051412;28;20351;-75
2022/04/03 07:23:43;;;;;;;;;;;;;;;12.70;40.48;102336.25;5054158;28;19913;-74
2022/04/03 07:26:08;;;;;;;;;;;;;;;12.49;40.77;102333.69;5054180;28;20517;-74
2022/04/03 07:28:33;;;;;;;;;;;;;;;13.75;37.92;102337.25;5054143;28;19986;-74
2022/04/03 07:30:59;;;;;;;;;;;;;;;14.20;36.84;102340.06;5053578;28;19997;-75
2022/04/03 07:33:24;;;;;;;;;;;;;;;13.83;37.62;102344.31;5053483;28;19917;-75
2022/04/03 07:35:50;;;;;;;;;;;;;;;13.14;39.91;102336.63;5052969;28;19917;-75
2022/04/03 07:38:15;;;;;;;;;;;;;;;13.21;39.87;102336.59;5053501;28;19948;-75
2022/04/03 07:40:40;;;;;;;;;;;;;;;13.50;39.28;102347.03;5053425;28;19913;-73
2022/04/03 07:43:06;;;;;;;;;;;;;;;13.61;39.10;102335.59;5052760;28;20369;-76
2022/04/03 07:45:31;;;;;;;;;;;;;;;14.11;38.21;102336.78;5051005;28;19928;-75
2022/04/03 07:47:58;;;;;;;;;;;;;;;14.19;37.08;102338.41;5053179;28;20059;-74
2022/04/03 07:50:23;;;;;;;;;;;;;;;14.20;37.01;102340.06;5052634;28;20316;-75
2022/04/03 07:52:48;;;;;;;;;;;;;;;13.99;38.43;102338.47;5052284;28;19959;-74
2022/04/03 07:55:14;;;;;;;;;;;;;;;14.38;37.07;102341.09;5053085;28;19946;-73
2022/04/03 07:57:40;;;;;;;;;;;;;;;13.88;38.04;102347.19;5052448;28;20357;-75
2022/04/03 08:00:06;;;;;;;;;;;;;;;14.85;35.87;102345.25;5052169;28;20067;-75
2022/04/03 08:02:32;;;;;;;;;;;;;;;14.29;37.85;102346.94;5081384;28;19917;-73
2022/04/03 08:04:57;;;;;;;;;;;;;;;13.92;38.17;102343.03;5052165;28;20443;-74
2022/04/03 08:07:32;;;;;;;;;;;;;;;13.95;38.31;102356.94;5052367;28;20321;-75
2022/04/03 08:09:58;;;;;;;;;;;;;;;14.06;37.72;102355.50;5051460;28;20051;-75
2022/04/03 08:12:23;;;;;;;;;;;;;;;14.31;37.27;102350.28;5052533;28;21907;-74
2022/04/03 08:14:49;;;;;;;;;;;;;;;14.20;37.11;102356.28;5052281;28;19927;-74
2022/04/03 08:17:14;;;;;;;;;;;;;;;14.15;37.80;102350.69;5050772;28;19918;-73
2022/04/03 08:19:39;;;;;;;;;;;;;;;15.00;36.64;102344.97;5052658;28;20437;-76
2022/04/03 08:22:04;;;;;;;;;;;;;;;15.29;36.41;102344.34;5052260;28;19923;-75
2022/04/03 08:24:30;;;;;;;;;;;;;;;14.19;38.25;102350.03;5051791;28;19916;-75
2022/04/03 08:26:55;;;;;;;;;;;;;;;14.26;38.28;102358.97;5051573;28;19920;-74
2022/04/03 08:29:20;;;;;;;;;;;;;;;14.04;38.37;102346.75;5049110;28;19916;-75
2022/04/03 08:31:45;;;;;;;;;;;;;;;14.51;37.44;102351.84;5051138;28;19970;-74
2022/04/03 08:34:11;;;;;;;;;;;;;;;14.11;37.71;102361.13;5052760;28;19912;-73
2022/04/03 08:36:36;;;;;;;;;;;;;;;14.63;37.33;102358.25;5052324;28;20398;-72
2022/04/03 08:39:07;;;;;;;;;;;;;;;14.33;38.89;102353.59;5051792;28;19978;-72
2022/04/03 08:41:32;;;;;;;;;;;;;;;13.51;40.29;102354.09;5049651;28;19959;-72
2022/04/03 08:43:57;;;;;;;;;;;;;;;13.87;39.34;102349.09;5050455;28;19952;-73
2022/04/03 08:46:24;;;;;;;;;;;;;;;14.26;39.07;102364.41;5049602;28;19909;-73
2022/04/03 08:48:49;;;;;;;;;;;;;;;14.20;39.50;102351.72;5051408;28;19921;-72
2022/04/03 08:51:16;;;;;;;;;;;;;;;14.53;39.53;102343.50;5051622;28;20002;-73
2022/04/03 08:53:43;;;;;;;;;;;;;;;13.87;40.20;102345.56;5051781;28;19924;-72
2022/04/03 08:56:09;;;;;;;;;;;;;;;14.59;39.12;102345.38;5052227;28;19917;-72
2022/04/03 08:58:34;;;;;;;;;;;;;;;15.10;37.81;102335.28;5051512;28;19920;-72
2022/04/03 09:01:01;;;;;;;;;;;;;;;15.42;36.82;102349.69;5051710;28;19924;-73
2022/04/03 09:03:26;;;;;;;;;;;;;;;14.60;38.52;102350.56;5051778;28;20356;-73
2022/04/03 09:05:52;;;;;;;;;;;;;;;15.24;37.73;102344.16;5045971;28;19921;-72
2022/04/03 09:08:19;;;;;;;;;;;;;;;15.09;36.93;102341.78;5031731;28;19924;-74
2022/04/03 09:11:00;;;;;;;;;;;;;;;14.87;36.25;102346.69;5040521;28;19958;-73
2022/04/03 09:13:26;;;;;;;;;;;;;;;15.48;34.02;102338.81;5051615;28;19913;-73
2022/04/03 09:15:51;;;;;;;;;;;;;;;15.67;34.70;102340.50;5051490;28;20714;-72
2022/04/03 09:18:18;;;;;;;;;;;;;;;15.56;35.24;102343.13;5051010;28;20225;-72
2022/04/03 09:20:43;;;;;;;;;;;;;;;14.34;37.57;102345.25;5050859;28;20439;-73
2022/04/03 09:23:09;;;;;;;;;;;;;;;13.71;39.15;102352.22;5051105;28;20001;-71
2022/04/03 09:25:36;;;;;;;;;;;;;;;13.93;37.74;102345.56;5050659;28;19916;-72
2022/04/03 09:28:02;;;;;;;;;;;;;;;14.48;36.71;102337.94;5051497;28;20418;-73
2022/04/03 09:30:32;;;;;;;;;;;;;;;15.21;35.39;102341.91;5052097;28;19919;-72
2022/04/03 09:32:59;;;;;;;;;;;;;;;15.48;35.11;102336.09;5048981;28;19991;-73
2022/04/03 09:35:26;;;;;;;;;;;;;;;13.61;38.78;102338.31;5048992;28;19969;-73
2022/04/03 09:38:04;;;;;;;;;;;;;;;14.75;36.77;102336.75;5050419;28;20268;-73
2022/04/03 09:40:30;;;;;;;;;;;;;;;14.86;35.60;102338.78;5049730;28;19909;-73
2022/04/03 09:43:15;;;;;;;;;;;;;;;15.09;35.04;102330.09;5051333;28;19924;-73
2022/04/03 09:46:06;;;;;;;;;;;;;;;15.07;34.28;102335.75;5049679;28;20489;-74
2022/04/03 09:48:32;;;;;;;;;;;;;;;15.00;34.90;102320.59;5047048;28;19960;-73
2022/04/03 09:51:00;;;;;;;;;;;;;;;15.91;34.58;102321.72;5046366;28;20005;-73
2022/04/03 09:53:26;;;;;;;;;;;;;;;15.79;35.81;102325.19;5046521;28;20031;-75
2022/04/03 09:55:52;;;;;;;;;;;;;;;15.06;36.99;102317.81;5048041;28;19974;-73
2022/04/03 09:58:17;;;;;;;;;;;;;;;15.11;38.21;102328.00;5048391;28;20210;-73
2022/04/03 10:00:42;;;;;;;;;;;;;;;15.19;37.59;102319.63;5048020;28;20675;-74
2022/04/03 10:03:11;;;;;;;;;;;;;;;15.41;36.92;102318.22;5045437;28;19995;-72
2022/04/03 10:05:37;;;;;;;;;;;;;;;15.38;36.94;102318.63;5047643;28;19995;-73
2022/04/03 10:08:03;;;;;;;;;;;;;;;14.83;38.18;102317.56;5047881;28;20008;-74
2022/04/03 10:10:29;;;;;;;;;;;;;;;14.68;38.37;102325.16;5046980;28;19920;-75
2022/04/03 10:12:55;;;;;;;;;;;;;;;15.97;36.15;102318.13;5051791;28;19921;-74
2022/04/03 10:15:21;;;;;;;;;;;;;;;15.15;37.37;102324.66;5051441;28;20007;-74
2022/04/03 10:17:46;;;;;;;;;;;;;;;15.87;36.22;102321.34;5049868;28;19917;-76
2022/04/03 10:20:11;;;;;;;;;;;;;;;15.15;37.73;102315.69;5051797;28;19916;-72
2022/04/03 10:22:39;;;;;;;;;;;;;;;16.28;34.93;102320.69;5052321;28;20372;-73
2022/04/03 10:25:06;;;;;;;;;;;;;;;16.24;34.98;102309.47;5052230;28;19921;-72
2022/04/03 10:27:39;;;;;;;;;;;;;;;15.79;35.96;102305.38;5052102;28;20591;-74
2022/04/03 10:30:05;;;;;;;;;;;;;;;16.66;34.97;102311.25;5050128;28;20005;-74
2022/04/03 10:32:33;;;;;;;;;;;;;;;16.03;34.87;102300.94;5052093;28;19999;-74
2022/04/03 10:35:03;;;;;;;;;;;;;;;14.85;37.58;102302.78;5050386;28;19997;-74
2022/04/03 10:37:41;;;;;;;;;;;;;;;15.17;37.06;102310.88;5050360;28;19974;-74
2022/04/03 10:40:17;;;;;;;;;;;;;;;15.65;35.99;102312.81;5051214;28;19927;-74
2022/04/03 10:42:58;;;;;;;;;;;;;;;15.12;36.21;102308.00;5050790;28;19924;-74
2022/04/03 10:45:56;;;;;;;;;;;;;;;14.68;36.87;102307.03;5050401;28;20046;-73
2022/04/03 10:48:21;;;;;;;;;;;;;;;14.50;37.00;102315.03;4988988;28;19988;-73
2022/04/03 10:51:03;;;;;;;;;;;;;;;12.14;41.99;102315.91;4988503;28;19918;-73
2022/04/03 10:53:32;;;;;;;;;;;;;;;11.57;42.91;102323.38;4973442;28;20013;-74
2022/04/03 10:55:59;;;;;;;;;;;;;;;12.40;42.96;102324.13;4991372;28;20004;-75
2022/04/03 10:58:37;;;;;;;;;;;;;;;12.05;43.10;102317.94;4990128;28;19918;-73
2022/04/03 11:01:03;;;;;;;;;;;;;;;11.91;44.91;102308.09;4985271;28;19921;-74
2022/04/03 11:03:28;;;;;;;;;;;;;;;12.90;43.22;102304.78;4967540;28;19918;-75
2022/04/03 11:05:54;;;;;;;;;;;;;;;13.47;42.48;102303.38;4988824;28;19929;-74
2022/04/03 11:08:39;;;;;;;;;;;;;;;13.91;40.78;102306.25;4988494;28;19976;-75
2022/04/03 11:11:08;;;;;;;;;;;;;;;14.21;40.32;102301.19;4988928;28;20120;-74
2022/04/03 11:13:33;;;;;;;;;;;;;;;13.94;39.84;102300.41;4988073;28;19917;-73
2022/04/03 11:16:12;;;;;;;;;;;;;;;14.78;38.04;102295.75;4987177;28;20000;-77
2022/04/03 11:18:52;;;;;;;;;;;;;;;13.32;41.42;102300.91;4987775;28;19914;-74
2022/04/03 11:21:25;;;;;;;;;;;;;;;14.29;39.35;102296.38;4986892;28;19925;-75
2022/04/03 11:23:50;;;;;;;;;;;;;;;14.58;38.86;102298.56;5014778;28;19921;-75
2022/04/03 11:26:16;;;;;;;;;;;;;;;13.52;40.52;102299.03;5047765;28;20063;-73
2022/04/03 11:28:43;;;;;;;;;;;;;;;14.23;40.50;102302.63;5048739;28;19928;-73
2022/04/03 11:31:09;;;;;;;;;;;;;;;12.79;42.66;102293.75;5050631;28;20051;-75
2022/04/03 11:33:35;;;;;;;;;;;;;;;13.55;41.79;102295.91;5050197;28;19956;-75
2022/04/03 11:36:03;;;;;;;;;;;;;;;14.59;39.14;102297.50;5049149;28;20011;-73
2022/04/03 11:38:35;;;;;;;;;;;;;;;15.54;38.19;102283.72;5050764;28;19967;-73
2022/04/03 11:41:01;;;;;;;;;;;;;;;14.89;38.04;102287.75;5047634;28;19913;-73
2022/04/03 11:43:27;;;;;;;;;;;;;;;14.60;38.44;102298.34;5050641;28;20386;-73
2022/04/03 11:45:54;;;;;;;;;;;;;;;14.43;37.20;102291.75;5050463;28;20008;-74
2022/04/03 11:48:20;;;;;;;;;;;;;;;13.11;38.28;102293.84;5048944;28;19949;-73
2022/04/03 11:50:46;;;;;;;;;;;;;;;14.03;36.54;102285.66;5050083;28;19947;-74
2022/04/03 11:53:11;;;;;;;;;;;;;;;14.54;36.06;102281.09;5050243;28;20376;-75
2022/04/03 11:55:37;;;;;;;;;;;;;;;15.55;34.67;102277.25;5050267;28;19926;-73
2022/04/03 11:58:05;;;;;;;;;;;;;;;14.86;36.73;102271.94;5048844;28;19999;-74
2022/04/03 12:00:30;;;;;;;;;;;;;;;13.72;39.15;102278.22;5049128;28;19917;-73
2022/04/03 12:02:59;;;;;;;;;;;;;;;15.51;36.10;102262.50;5048496;28;20027;-73
2022/04/03 12:05:24;;;;;;;;;;;;;;;15.28;36.16;102258.72;5071296;28;19925;-74
2022/04/03 12:07:50;;;;;;;;;;;;;;;16.25;34.29;102251.47;5049116;28;19969;-73
2022/04/03 12:10:26;;;;;;;;;;;;;;;18.19;31.87;102253.03;5048933;28;19917;-72
2022/04/03 12:12:53;;;;;;;;;;;;;;;17.32;31.32;102251.31;5044895;28;19936;-73
2022/04/03 12:15:22;;;;;;;;;;;;;;;16.87;32.92;102246.63;5046255;28;19950;-73
2022/04/03 12:17:57;;;;;;;;;;;;;;;17.82;30.96;102237.25;5046589;28;20012;-73
2022/04/03 12:20:23;;;;;;;;;;;;;;;17.71;29.79;102240.84;5048483;28;19913;-73
2022/04/03 12:22:51;;;;;;;;;;;;;;;16.83;30.67;102229.97;5047610;28;19923;-72
2022/04/03 12:25:17;;;;;;;;;;;;;;;18.01;29.59;102239.59;5048821;28;19916;-73
2022/04/03 12:27:42;;;;;;;;;;;;;;;16.86;29.98;102229.53;5048371;28;19916;-73
2022/04/03 12:30:09;;;;;;;;;;;;;;;17.14;29.74;102221.53;5047310;28;19924;-73
2022/04/03 12:32:36;;;;;;;;;;;;;;;18.45;28.30;102218.16;5047013;28;21890;-74